sensor_id;sensor_type;location;lat;lon;timestamp;temperature;humidity
6118;DHT22;3089;48.202;11.510;2022-10-26T00:01:33;10.90;99.90
6118;DHT22;3089;48.202;11.510;2022-10-26T00:04:01;10.90;99.90
6118;DHT22;3089;48.202;11.510;2022-10-26T00:06:30;10.80;99.90
6118;DHT22;3089;48.202;11.510;2022-10-26T00:08:58;10.80;99.90
6118;DHT22;3089;48.202;11.510;2022-10-26T00:11:26;10.90;99.90
6118;DHT22;3089;48.202;11.510;2022-10-26T00:13:54;10.90;99.90
6118;DHT22;3089;48.202;11.510;2022-10-26T00:16:24;11.00;99.90
6118;DHT22;3089;48.202;11.510;2022-10-26T00:18:52;11.00;99.90
6118;DHT22;3089;48.202;11.510;2022-10-26T00:21:20;10.90;99.90
6118;DHT22;3089;48.202;11.510;2022-10-26T00:23:49;10.80;99.90
6118;DHT22;3089;48.202;11.510;2022-10-26T00:26:17;10.70;99.90
6118;DHT22;3089;48.202;11.510;2022-10-26T00:28:45;10.50;99.90
6118;DHT22;3089;48.202;11.510;2022-10-26T00:31:14;10.70;99.90
6118;DHT22;3089;48.202;11.510;2022-10-26T00:33:43;10.80;99.90
6118;DHT22;3089;48.202;11.510;2022-10-26T00:36:11;10.90;99.90
6118;DHT22;3089;48.202;11.510;2022-10-26T00:38:42;10.90;99.90
6118;DHT22;3089;48.202;11.510;2022-10-26T00:41:15;10.90;99.90
6118;DHT22;3089;48.202;11.510;2022-10-26T00:43:43;10.90;99.90
6118;DHT22;3089;48.202;11.510;2022-10-26T00:46:13;10.90;99.90
6118;DHT22;3089;48.202;11.510;2022-10-26T00:48:44;10.90;99.90
6118;DHT22;3089;48.202;11.510;2022-10-26T00:51:19;10.80;99.90
6118;DHT22;3089;48.202;11.510;2022-10-26T00:53:49;10.70;99.90
6118;DHT22;3089;48.202;11.510;2022-10-26T00:56:19;10.80;99.90
6118;DHT22;3089;48.202;11.510;2022-10-26T00:58:47;10.80;99.90
6118;DHT22;3089;48.202;11.510;2022-10-26T01:01:15;10.90;99.90
6118;DHT22;3089;48.202;11.510;2022-10-26T01:03:44;10.90;99.90
6118;DHT22;3089;48.202;11.510;2022-10-26T01:06:12;10.90;99.90
6118;DHT22;3089;48.202;11.510;2022-10-26T01:08:42;10.90;99.90
6118;DHT22;3089;48.202;11.510;2022-10-26T01:11:11;11.00;99.90
6118;DHT22;3089;48.202;11.510;2022-10-26T01:13:43;11.00;99.90
6118;DHT22;3089;48.202;11.510;2022-10-26T01:16:32;10.90;99.90
6118;DHT22;3089;48.202;11.510;2022-10-26T01:22:13;10.80;99.90
6118;DHT22;3089;48.202;11.510;2022-10-26T01:25:01;10.60;99.90
6118;DHT22;3089;48.202;11.510;2022-10-26T01:27:33;10.70;99.90
6118;DHT22;3089;48.202;11.510;2022-10-26T01:30:27;10.70;99.90
6118;DHT22;3089;48.202;11.510;2022-10-26T01:33:26;10.70;99.90
6118;DHT22;3089;48.202;11.510;2022-10-26T01:36:06;10.70;99.90
6118;DHT22;3089;48.202;11.510;2022-10-26T01:38:42;10.80;99.90
6118;DHT22;3089;48.202;11.510;2022-10-26T01:41:14;10.80;99.90
6118;DHT22;3089;48.202;11.510;2022-10-26T01:43:49;10.90;99.90
6118;DHT22;3089;48.202;11.510;2022-10-26T01:46:21;10.80;99.90
6118;DHT22;3089;48.202;11.510;2022-10-26T01:48:52;10.70;99.90
6118;DHT22;3089;48.202;11.510;2022-10-26T01:51:22;10.70;99.90
6118;DHT22;3089;48.202;11.510;2022-10-26T01:53:51;10.40;99.90
6118;DHT22;3089;48.202;11.510;2022-10-26T01:56:22;10.10;99.90
6118;DHT22;3089;48.202;11.510;2022-10-26T01:59:16;10.50;99.90
6118;DHT22;3089;48.202;11.510;2022-10-26T02:02:14;10.80;99.90
6118;DHT22;3089;48.202;11.510;2022-10-26T02:04:55;10.80;99.90
6118;DHT22;3089;48.202;11.510;2022-10-26T02:07:30;10.70;99.90
6118;DHT22;3089;48.202;11.510;2022-10-26T02:10:09;10.70;99.90
6118;DHT22;3089;48.202;11.510;2022-10-26T02:12:51;10.30;99.90
6118;DHT22;3089;48.202;11.510;2022-10-26T02:15:26;10.50;99.90
6118;DHT22;3089;48.202;11.510;2022-10-26T02:18:04;10.60;99.90
6118;DHT22;3089;48.202;11.510;2022-10-26T02:20:35;10.70;99.90
6118;DHT22;3089;48.202;11.510;2022-10-26T02:23:06;10.70;99.90
6118;DHT22;3089;48.202;11.510;2022-10-26T02:25:37;10.80;99.90
6118;DHT22;3089;48.202;11.510;2022-10-26T02:28:08;10.80;99.90
6118;DHT22;3089;48.202;11.510;2022-10-26T02:30:39;10.70;99.90
6118;DHT22;3089;48.202;11.510;2022-10-26T02:33:10;10.70;99.90
6118;DHT22;3089;48.202;11.510;2022-10-26T02:35:40;10.70;99.90
6118;DHT22;3089;48.202;11.510;2022-10-26T02:38:11;10.80;99.90
6118;DHT22;3089;48.202;11.510;2022-10-26T02:40:40;10.80;99.90
6118;DHT22;3089;48.202;11.510;2022-10-26T02:43:12;10.80;99.90
6118;DHT22;3089;48.202;11.510;2022-10-26T02:45:44;10.80;99.90
6118;DHT22;3089;48.202;11.510;2022-10-26T02:48:15;10.80;99.90
6118;DHT22;3089;48.202;11.510;2022-10-26T02:50:52;10.40;99.90
6118;DHT22;3089;48.202;11.510;2022-10-26T02:53:26;10.70;99.90
6118;DHT22;3089;48.202;11.510;2022-10-26T02:55:58;10.70;99.90
6118;DHT22;3089;48.202;11.510;2022-10-26T02:58:30;10.70;99.90
6118;DHT22;3089;48.202;11.510;2022-10-26T03:01:01;10.70;99.90
6118;DHT22;3089;48.202;11.510;2022-10-26T03:03:30;10.80;99.90
6118;DHT22;3089;48.202;11.510;2022-10-26T03:05:58;10.60;99.90
6118;DHT22;3089;48.202;11.510;2022-10-26T03:08:25;10.70;99.90
6118;DHT22;3089;48.202;11.510;2022-10-26T03:10:58;10.50;99.90
6118;DHT22;3089;48.202;11.510;2022-10-26T03:13:26;10.50;99.90
6118;DHT22;3089;48.202;11.510;2022-10-26T03:15:54;10.60;99.90
6118;DHT22;3089;48.202;11.510;2022-10-26T03:18:23;10.50;99.90
6118;DHT22;3089;48.202;11.510;2022-10-26T03:20:52;10.60;99.90
6118;DHT22;3089;48.202;11.510;2022-10-26T03:23:20;10.60;99.90
6118;DHT22;3089;48.202;11.510;2022-10-26T03:25:47;10.60;99.90
6118;DHT22;3089;48.202;11.510;2022-10-26T03:28:15;10.60;99.90
6118;DHT22;3089;48.202;11.510;2022-10-26T03:30:43;10.50;99.90
6118;DHT22;3089;48.202;11.510;2022-10-26T03:33:11;10.50;99.90
6118;DHT22;3089;48.202;11.510;2022-10-26T03:35:39;10.60;99.90
6118;DHT22;3089;48.202;11.510;2022-10-26T03:38:08;10.70;99.90
6118;DHT22;3089;48.202;11.510;2022-10-26T03:40:40;10.70;99.90
6118;DHT22;3089;48.202;11.510;2022-10-26T03:43:08;10.70;99.90
6118;DHT22;3089;48.202;11.510;2022-10-26T03:45:36;10.80;99.90
6118;DHT22;3089;48.202;11.510;2022-10-26T03:48:04;10.80;99.90
6118;DHT22;3089;48.202;11.510;2022-10-26T03:50:32;10.80;99.90
6118;DHT22;3089;48.202;11.510;2022-10-26T03:53:00;10.80;99.90
6118;DHT22;3089;48.202;11.510;2022-10-26T03:55:29;10.80;99.90
6118;DHT22;3089;48.202;11.510;2022-10-26T03:57:56;10.80;99.90
6118;DHT22;3089;48.202;11.510;2022-10-26T04:00:24;10.80;99.90
6118;DHT22;3089;48.202;11.510;2022-10-26T04:02:53;10.80;99.90
6118;DHT22;3089;48.202;11.510;2022-10-26T04:05:22;10.80;99.90
6118;DHT22;3089;48.202;11.510;2022-10-26T04:07:53;10.80;99.90
6118;DHT22;3089;48.202;11.510;2022-10-26T04:10:22;10.80;99.90
6118;DHT22;3089;48.202;11.510;2022-10-26T04:12:51;10.80;99.90
6118;DHT22;3089;48.202;11.510;2022-10-26T04:15:20;10.80;99.90
6118;DHT22;3089;48.202;11.510;2022-10-26T04:17:53;10.80;99.90
6118;DHT22;3089;48.202;11.510;2022-10-26T04:20:21;10.80;99.90
6118;DHT22;3089;48.202;11.510;2022-10-26T04:22:56;10.70;99.90
6118;DHT22;3089;48.202;11.510;2022-10-26T04:25:24;10.60;99.90
6118;DHT22;3089;48.202;11.510;2022-10-26T04:27:58;10.60;99.90
6118;DHT22;3089;48.202;11.510;2022-10-26T04:30:26;10.70;99.90
6118;DHT22;3089;48.202;11.510;2022-10-26T04:32:54;10.70;99.90
6118;DHT22;3089;48.202;11.510;2022-10-26T04:35:22;10.70;99.90
6118;DHT22;3089;48.202;11.510;2022-10-26T04:37:50;10.70;99.90
6118;DHT22;3089;48.202;11.510;2022-10-26T04:40:18;10.60;99.90
6118;DHT22;3089;48.202;11.510;2022-10-26T04:42:46;10.60;99.90
6118;DHT22;3089;48.202;11.510;2022-10-26T04:45:16;10.60;99.90
6118;DHT22;3089;48.202;11.510;2022-10-26T04:47:44;10.50;99.90
6118;DHT22;3089;48.202;11.510;2022-10-26T04:50:13;10.70;99.90
6118;DHT22;3089;48.202;11.510;2022-10-26T04:52:40;10.70;99.90
6118;DHT22;3089;48.202;11.510;2022-10-26T04:55:08;10.80;99.90
6118;DHT22;3089;48.202;11.510;2022-10-26T04:57:43;10.90;99.90
6118;DHT22;3089;48.202;11.510;2022-10-26T05:00:12;10.90;99.90
6118;DHT22;3089;48.202;11.510;2022-10-26T05:02:41;10.90;99.90
6118;DHT22;3089;48.202;11.510;2022-10-26T05:05:09;10.90;99.90
6118;DHT22;3089;48.202;11.510;2022-10-26T05:07:40;10.90;99.90
6118;DHT22;3089;48.202;11.510;2022-10-26T05:10:09;10.90;99.90
6118;DHT22;3089;48.202;11.510;2022-10-26T05:12:36;10.90;99.90
6118;DHT22;3089;48.202;11.510;2022-10-26T05:15:05;10.90;99.90
6118;DHT22;3089;48.202;11.510;2022-10-26T05:17:34;10.80;99.90
6118;DHT22;3089;48.202;11.510;2022-10-26T05:20:04;10.80;99.90
6118;DHT22;3089;48.202;11.510;2022-10-26T05:22:35;10.80;99.90
6118;DHT22;3089;48.202;11.510;2022-10-26T05:25:04;10.70;99.90
6118;DHT22;3089;48.202;11.510;2022-10-26T05:27:32;10.70;99.90
6118;DHT22;3089;48.202;11.510;2022-10-26T05:29:59;10.70;99.90
6118;DHT22;3089;48.202;11.510;2022-10-26T05:32:27;10.80;99.90
6118;DHT22;3089;48.202;11.510;2022-10-26T05:34:55;10.80;99.90
6118;DHT22;3089;48.202;11.510;2022-10-26T05:37:27;10.90;99.90
6118;DHT22;3089;48.202;11.510;2022-10-26T05:39:55;10.90;99.90
6118;DHT22;3089;48.202;11.510;2022-10-26T05:42:22;10.80;99.90
6118;DHT22;3089;48.202;11.510;2022-10-26T05:44:51;10.70;99.90
6118;DHT22;3089;48.202;11.510;2022-10-26T05:47:18;10.80;99.90
6118;DHT22;3089;48.202;11.510;2022-10-26T05:49:46;10.90;99.90
6118;DHT22;3089;48.202;11.510;2022-10-26T05:52:14;10.90;99.90
6118;DHT22;3089;48.202;11.510;2022-10-26T05:54:43;10.80;99.90
6118;DHT22;3089;48.202;11.510;2022-10-26T05:57:12;10.80;99.90
6118;DHT22;3089;48.202;11.510;2022-10-26T05:59:40;10.70;99.90
6118;DHT22;3089;48.202;11.510;2022-10-26T06:02:13;10.80;99.90
6118;DHT22;3089;48.202;11.510;2022-10-26T06:04:46;10.90;99.90
6118;DHT22;3089;48.202;11.510;2022-10-26T06:07:15;10.80;99.90
6118;DHT22;3089;48.202;11.510;2022-10-26T06:09:46;10.70;99.90
6118;DHT22;3089;48.202;11.510;2022-10-26T06:12:15;10.80;99.90
6118;DHT22;3089;48.202;11.510;2022-10-26T06:14:46;10.80;99.90
6118;DHT22;3089;48.202;11.510;2022-10-26T06:17:38;10.80;99.90
6118;DHT22;3089;48.202;11.510;2022-10-26T06:20:30;10.80;99.90
6118;DHT22;3089;48.202;11.510;2022-10-26T06:23:15;10.80;99.90
6118;DHT22;3089;48.202;11.510;2022-10-26T06:25:52;10.90;99.90
6118;DHT22;3089;48.202;11.510;2022-10-26T06:28:29;10.80;99.90
6118;DHT22;3089;48.202;11.510;2022-10-26T06:31:01;10.90;99.90
6118;DHT22;3089;48.202;11.510;2022-10-26T06:33:29;10.80;99.90
6118;DHT22;3089;48.202;11.510;2022-10-26T06:36:07;10.90;99.90
6118;DHT22;3089;48.202;11.510;2022-10-26T06:38:41;11.00;99.90
6118;DHT22;3089;48.202;11.510;2022-10-26T06:41:12;11.00;99.90
6118;DHT22;3089;48.202;11.510;2022-10-26T06:43:42;11.00;99.90
6118;DHT22;3089;48.202;11.510;2022-10-26T06:46:18;11.00;99.90
6118;DHT22;3089;48.202;11.510;2022-10-26T06:48:53;10.90;99.90
6118;DHT22;3089;48.202;11.510;2022-10-26T06:51:23;10.90;99.90
6118;DHT22;3089;48.202;11.510;2022-10-26T06:53:56;10.90;99.90
6118;DHT22;3089;48.202;11.510;2022-10-26T06:56:28;11.00;99.90
6118;DHT22;3089;48.202;11.510;2022-10-26T06:59:03;11.20;99.90
6118;DHT22;3089;48.202;11.510;2022-10-26T07:01:33;11.60;99.90
6118;DHT22;3089;48.202;11.510;2022-10-26T07:04:01;11.20;99.90
6118;DHT22;3089;48.202;11.510;2022-10-26T07:06:29;11.10;99.90
6118;DHT22;3089;48.202;11.510;2022-10-26T07:09:01;11.20;99.90
6118;DHT22;3089;48.202;11.510;2022-10-26T07:11:30;11.20;99.90
6118;DHT22;3089;48.202;11.510;2022-10-26T07:13:58;11.30;99.90
6118;DHT22;3089;48.202;11.510;2022-10-26T07:16:25;11.10;99.90
6118;DHT22;3089;48.202;11.510;2022-10-26T07:18:54;11.10;99.90
6118;DHT22;3089;48.202;11.510;2022-10-26T07:21:22;11.10;99.90
6118;DHT22;3089;48.202;11.510;2022-10-26T07:23:50;11.20;99.90
6118;DHT22;3089;48.202;11.510;2022-10-26T07:26:21;11.20;99.90
6118;DHT22;3089;48.202;11.510;2022-10-26T07:28:52;11.20;99.90
6118;DHT22;3089;48.202;11.510;2022-10-26T07:31:20;11.30;99.90
6118;DHT22;3089;48.202;11.510;2022-10-26T07:33:47;11.30;99.90
6118;DHT22;3089;48.202;11.510;2022-10-26T07:36:15;11.40;99.90
6118;DHT22;3089;48.202;11.510;2022-10-26T07:38:43;11.50;99.90
6118;DHT22;3089;48.202;11.510;2022-10-26T07:41:11;11.40;99.90
6118;DHT22;3089;48.202;11.510;2022-10-26T07:43:39;11.40;99.90
6118;DHT22;3089;48.202;11.510;2022-10-26T07:46:08;11.50;99.90
6118;DHT22;3089;48.202;11.510;2022-10-26T07:48:36;11.60;99.90
6118;DHT22;3089;48.202;11.510;2022-10-26T07:51:05;11.60;99.90
6118;DHT22;3089;48.202;11.510;2022-10-26T07:53:32;11.70;99.90
6118;DHT22;3089;48.202;11.510;2022-10-26T07:56:00;11.70;99.90
6118;DHT22;3089;48.202;11.510;2022-10-26T07:58:30;11.80;99.90
6118;DHT22;3089;48.202;11.510;2022-10-26T08:01:04;11.80;99.90
6118;DHT22;3089;48.202;11.510;2022-10-26T08:03:34;11.90;99.90
6118;DHT22;3089;48.202;11.510;2022-10-26T08:06:02;11.80;99.90
6118;DHT22;3089;48.202;11.510;2022-10-26T08:08:30;11.80;99.90
6118;DHT22;3089;48.202;11.510;2022-10-26T08:10:58;12.00;99.90
6118;DHT22;3089;48.202;11.510;2022-10-26T08:13:26;12.10;99.90
6118;DHT22;3089;48.202;11.510;2022-10-26T08:15:57;12.50;99.90
6118;DHT22;3089;48.202;11.510;2022-10-26T08:18:26;13.00;99.90
6118;DHT22;3089;48.202;11.510;2022-10-26T08:21:00;13.30;99.90
6118;DHT22;3089;48.202;11.510;2022-10-26T08:23:37;12.90;99.90
6118;DHT22;3089;48.202;11.510;2022-10-26T08:26:05;12.80;99.90
6118;DHT22;3089;48.202;11.510;2022-10-26T08:28:33;13.20;99.90
6118;DHT22;3089;48.202;11.510;2022-10-26T08:31:01;13.30;99.90
6118;DHT22;3089;48.202;11.510;2022-10-26T08:33:29;13.10;99.90
6118;DHT22;3089;48.202;11.510;2022-10-26T08:35:59;14.00;99.90
6118;DHT22;3089;48.202;11.510;2022-10-26T08:38:28;13.60;99.90
6118;DHT22;3089;48.202;11.510;2022-10-26T08:40:56;13.50;99.90
6118;DHT22;3089;48.202;11.510;2022-10-26T08:43:28;13.70;99.90
6118;DHT22;3089;48.202;11.510;2022-10-26T08:46:03;13.60;99.90
6118;DHT22;3089;48.202;11.510;2022-10-26T08:48:33;13.50;99.90
6118;DHT22;3089;48.202;11.510;2022-10-26T08:51:07;13.50;99.90
6118;DHT22;3089;48.202;11.510;2022-10-26T08:53:40;13.60;99.90
6118;DHT22;3089;48.202;11.510;2022-10-26T08:56:12;13.90;99.90
6118;DHT22;3089;48.202;11.510;2022-10-26T08:58:46;14.10;99.90
6118;DHT22;3089;48.202;11.510;2022-10-26T09:01:16;14.40;99.90
6118;DHT22;3089;48.202;11.510;2022-10-26T09:03:44;14.30;99.90
6118;DHT22;3089;48.202;11.510;2022-10-26T09:06:23;14.50;99.90
6118;DHT22;3089;48.202;11.510;2022-10-26T09:09:02;14.60;99.90
6118;DHT22;3089;48.202;11.510;2022-10-26T09:11:49;14.50;99.90
6118;DHT22;3089;48.202;11.510;2022-10-26T09:14:25;14.80;99.90
6118;DHT22;3089;48.202;11.510;2022-10-26T09:17:03;14.80;99.90
6118;DHT22;3089;48.202;11.510;2022-10-26T09:19:43;14.80;99.90
6118;DHT22;3089;48.202;11.510;2022-10-26T09:22:20;15.70;99.90
6118;DHT22;3089;48.202;11.510;2022-10-26T09:24:51;16.70;99.90
6118;DHT22;3089;48.202;11.510;2022-10-26T09:27:25;16.90;99.90
6118;DHT22;3089;48.202;11.510;2022-10-26T09:29:55;16.60;99.90
6118;DHT22;3089;48.202;11.510;2022-10-26T09:32:26;16.20;99.90
6118;DHT22;3089;48.202;11.510;2022-10-26T09:34:59;15.90;99.90
6118;DHT22;3089;48.202;11.510;2022-10-26T09:37:34;15.80;99.90
6118;DHT22;3089;48.202;11.510;2022-10-26T09:40:10;16.20;99.90
6118;DHT22;3089;48.202;11.510;2022-10-26T09:42:40;16.30;99.90
6118;DHT22;3089;48.202;11.510;2022-10-26T09:45:15;16.60;99.90
6118;DHT22;3089;48.202;11.510;2022-10-26T09:47:47;16.60;99.90
6118;DHT22;3089;48.202;11.510;2022-10-26T09:50:22;16.40;99.90
6118;DHT22;3089;48.202;11.510;2022-10-26T09:52:52;16.60;99.90
6118;DHT22;3089;48.202;11.510;2022-10-26T09:57:51;17.20;99.90
6118;DHT22;3089;48.202;11.510;2022-10-26T10:00:21;17.00;99.90
6118;DHT22;3089;48.202;11.510;2022-10-26T10:02:51;16.20;99.90
6118;DHT22;3089;48.202;11.510;2022-10-26T10:05:25;16.30;99.90
6118;DHT22;3089;48.202;11.510;2022-10-26T10:08:17;16.60;99.90
6118;DHT22;3089;48.202;11.510;2022-10-26T10:10:56;16.30;99.90
6118;DHT22;3089;48.202;11.510;2022-10-26T10:13:26;16.30;99.90
6118;DHT22;3089;48.202;11.510;2022-10-26T10:16:02;16.20;99.90
6118;DHT22;3089;48.202;11.510;2022-10-26T10:18:31;15.70;99.90
6118;DHT22;3089;48.202;11.510;2022-10-26T10:20:59;15.80;99.90
6118;DHT22;3089;48.202;11.510;2022-10-26T10:23:31;15.80;99.90
6118;DHT22;3089;48.202;11.510;2022-10-26T10:26:00;15.70;99.90
6118;DHT22;3089;48.202;11.510;2022-10-26T10:28:29;16.20;99.90
6118;DHT22;3089;48.202;11.510;2022-10-26T10:30:58;15.60;99.90
6118;DHT22;3089;48.202;11.510;2022-10-26T10:33:34;16.00;99.90
6118;DHT22;3089;48.202;11.510;2022-10-26T10:36:05;16.20;99.90
6118;DHT22;3089;48.202;11.510;2022-10-26T10:38:41;15.60;99.90
6118;DHT22;3089;48.202;11.510;2022-10-26T10:41:19;15.80;99.90
6118;DHT22;3089;48.202;11.510;2022-10-26T10:43:49;16.10;99.90
6118;DHT22;3089;48.202;11.510;2022-10-26T10:46:20;16.20;99.90
6118;DHT22;3089;48.202;11.510;2022-10-26T10:48:52;15.70;99.90
6118;DHT22;3089;48.202;11.510;2022-10-26T10:51:23;15.70;99.90
6118;DHT22;3089;48.202;11.510;2022-10-26T10:53:54;15.90;99.90
6118;DHT22;3089;48.202;11.510;2022-10-26T10:56:31;15.70;99.90
6118;DHT22;3089;48.202;11.510;2022-10-26T10:59:23;16.00;99.90
6118;DHT22;3089;48.202;11.510;2022-10-26T11:02:03;16.60;99.90
6118;DHT22;3089;48.202;11.510;2022-10-26T11:04:51;15.90;99.90
6118;DHT22;3089;48.202;11.510;2022-10-26T11:07:24;16.20;99.90
6118;DHT22;3089;48.202;11.510;2022-10-26T11:09:56;15.90;99.90
6118;DHT22;3089;48.202;11.510;2022-10-26T11:12:32;16.60;99.90
6118;DHT22;3089;48.202;11.510;2022-10-26T11:15:10;16.10;99.90
6118;DHT22;3089;48.202;11.510;2022-10-26T11:17:45;16.40;99.90
6118;DHT22;3089;48.202;11.510;2022-10-26T11:20:21;16.40;99.90
6118;DHT22;3089;48.202;11.510;2022-10-26T11:23:01;16.80;99.90
6118;DHT22;3089;48.202;11.510;2022-10-26T11:25:43;16.20;99.90
6118;DHT22;3089;48.202;11.510;2022-10-26T11:28:16;16.50;99.90
6118;DHT22;3089;48.202;11.510;2022-10-26T11:30:49;16.80;99.90
6118;DHT22;3089;48.202;11.510;2022-10-26T11:33:22;17.00;99.90
6118;DHT22;3089;48.202;11.510;2022-10-26T11:35:56;16.70;99.90
6118;DHT22;3089;48.202;11.510;2022-10-26T11:38:30;16.50;99.90
6118;DHT22;3089;48.202;11.510;2022-10-26T11:41:23;16.50;99.90
6118;DHT22;3089;48.202;11.510;2022-10-26T11:43:58;17.20;99.90
6118;DHT22;3089;48.202;11.510;2022-10-26T11:46:30;16.60;99.90
6118;DHT22;3089;48.202;11.510;2022-10-26T11:49:01;16.60;99.90
6118;DHT22;3089;48.202;11.510;2022-10-26T11:51:36;16.40;99.90
6118;DHT22;3089;48.202;11.510;2022-10-26T11:54:10;16.40;99.90
6118;DHT22;3089;48.202;11.510;2022-10-26T11:56:46;16.40;99.90
6118;DHT22;3089;48.202;11.510;2022-10-26T11:59:18;16.80;99.90
6118;DHT22;3089;48.202;11.510;2022-10-26T12:01:47;16.80;99.90
6118;DHT22;3089;48.202;11.510;2022-10-26T12:04:18;16.70;99.90
6118;DHT22;3089;48.202;11.510;2022-10-26T12:06:48;17.10;99.90
6118;DHT22;3089;48.202;11.510;2022-10-26T12:09:21;16.60;99.90
6118;DHT22;3089;48.202;11.510;2022-10-26T12:11:58;16.80;99.90
6118;DHT22;3089;48.202;11.510;2022-10-26T12:14:31;16.90;99.90
6118;DHT22;3089;48.202;11.510;2022-10-26T12:17:09;16.70;99.90
6118;DHT22;3089;48.202;11.510;2022-10-26T12:19:44;16.50;99.90
6118;DHT22;3089;48.202;11.510;2022-10-26T12:22:16;16.50;99.90
6118;DHT22;3089;48.202;11.510;2022-10-26T12:24:45;16.80;99.90
6118;DHT22;3089;48.202;11.510;2022-10-26T12:27:42;16.90;99.90
6118;DHT22;3089;48.202;11.510;2022-10-26T12:30:27;16.60;99.90
6118;DHT22;3089;48.202;11.510;2022-10-26T12:32:56;16.90;99.90
6118;DHT22;3089;48.202;11.510;2022-10-26T12:35:46;17.00;99.90
6118;DHT22;3089;48.202;11.510;2022-10-26T12:38:56;16.90;99.90
6118;DHT22;3089;48.202;11.510;2022-10-26T12:41:27;16.70;99.90
6118;DHT22;3089;48.202;11.510;2022-10-26T12:44:03;16.50;99.90
6118;DHT22;3089;48.202;11.510;2022-10-26T12:46:52;16.70;99.90
6118;DHT22;3089;48.202;11.510;2022-10-26T12:52:28;16.80;99.90
6118;DHT22;3089;48.202;11.510;2022-10-26T12:58:15;16.70;99.90
6118;DHT22;3089;48.202;11.510;2022-10-26T13:00:52;17.30;99.90
6118;DHT22;3089;48.202;11.510;2022-10-26T13:03:44;17.30;99.90
6118;DHT22;3089;48.202;11.510;2022-10-26T13:06:35;17.30;99.90
6118;DHT22;3089;48.202;11.510;2022-10-26T13:09:11;17.20;99.90
6118;DHT22;3089;48.202;11.510;2022-10-26T13:11:47;17.40;99.90
6118;DHT22;3089;48.202;11.510;2022-10-26T13:14:19;17.40;99.90
6118;DHT22;3089;48.202;11.510;2022-10-26T13:16:49;17.30;99.90
6118;DHT22;3089;48.202;11.510;2022-10-26T13:19:29;17.20;99.90
6118;DHT22;3089;48.202;11.510;2022-10-26T13:21:58;17.30;99.90
6118;DHT22;3089;48.202;11.510;2022-10-26T13:24:27;17.50;99.90
6118;DHT22;3089;48.202;11.510;2022-10-26T13:27:23;17.30;99.90
6118;DHT22;3089;48.202;11.510;2022-10-26T13:30:20;17.40;99.90
6118;DHT22;3089;48.202;11.510;2022-10-26T13:32:50;17.20;99.90
6118;DHT22;3089;48.202;11.510;2022-10-26T13:35:22;17.20;99.90
6118;DHT22;3089;48.202;11.510;2022-10-26T13:37:53;17.20;99.90
6118;DHT22;3089;48.202;11.510;2022-10-26T13:40:23;16.90;99.90
6118;DHT22;3089;48.202;11.510;2022-10-26T13:42:53;16.90;99.90
6118;DHT22;3089;48.202;11.510;2022-10-26T13:45:24;17.00;99.90
6118;DHT22;3089;48.202;11.510;2022-10-26T13:47:56;17.10;99.90
6118;DHT22;3089;48.202;11.510;2022-10-26T13:50:38;16.70;99.90
6118;DHT22;3089;48.202;11.510;2022-10-26T13:53:10;16.70;99.90
6118;DHT22;3089;48.202;11.510;2022-10-26T13:55:47;17.10;99.90
6118;DHT22;3089;48.202;11.510;2022-10-26T13:58:20;17.10;99.90
6118;DHT22;3089;48.202;11.510;2022-10-26T14:01:02;17.20;99.90
6118;DHT22;3089;48.202;11.510;2022-10-26T14:03:31;16.90;99.90
6118;DHT22;3089;48.202;11.510;2022-10-26T14:06:04;17.00;99.90
6118;DHT22;3089;48.202;11.510;2022-10-26T14:08:32;17.30;99.90
6118;DHT22;3089;48.202;11.510;2022-10-26T14:11:00;17.40;99.90
6118;DHT22;3089;48.202;11.510;2022-10-26T14:13:29;17.30;99.90
6118;DHT22;3089;48.202;11.510;2022-10-26T14:15:58;17.70;99.90
6118;DHT22;3089;48.202;11.510;2022-10-26T14:18:28;17.40;99.90
6118;DHT22;3089;48.202;11.510;2022-10-26T14:21:00;17.30;99.90
6118;DHT22;3089;48.202;11.510;2022-10-26T14:23:34;17.40;99.90
6118;DHT22;3089;48.202;11.510;2022-10-26T14:26:03;17.30;99.90
6118;DHT22;3089;48.202;11.510;2022-10-26T14:28:36;17.10;99.90
6118;DHT22;3089;48.202;11.510;2022-10-26T14:31:12;17.00;99.90
6118;DHT22;3089;48.202;11.510;2022-10-26T14:33:45;17.00;99.90
6118;DHT22;3089;48.202;11.510;2022-10-26T14:36:16;17.30;99.90
6118;DHT22;3089;48.202;11.510;2022-10-26T14:38:47;17.20;99.90
6118;DHT22;3089;48.202;11.510;2022-10-26T14:41:16;17.20;99.90
6118;DHT22;3089;48.202;11.510;2022-10-26T14:43:45;17.10;99.90
6118;DHT22;3089;48.202;11.510;2022-10-26T14:46:14;17.30;99.90
6118;DHT22;3089;48.202;11.510;2022-10-26T14:48:51;17.40;99.90
6118;DHT22;3089;48.202;11.510;2022-10-26T14:51:25;17.40;99.90
6118;DHT22;3089;48.202;11.510;2022-10-26T14:53:54;17.40;99.90
6118;DHT22;3089;48.202;11.510;2022-10-26T14:56:29;17.40;99.90
6118;DHT22;3089;48.202;11.510;2022-10-26T14:58:58;17.40;99.90
6118;DHT22;3089;48.202;11.510;2022-10-26T15:01:31;17.20;99.90
6118;DHT22;3089;48.202;11.510;2022-10-26T15:04:04;17.30;99.90
6118;DHT22;3089;48.202;11.510;2022-10-26T15:06:38;17.20;99.90
6118;DHT22;3089;48.202;11.510;2022-10-26T15:09:37;17.20;99.90
6118;DHT22;3089;48.202;11.510;2022-10-26T15:12:05;17.20;99.90
6118;DHT22;3089;48.202;11.510;2022-10-26T15:14:35;17.20;99.90
6118;DHT22;3089;48.202;11.510;2022-10-26T15:17:03;17.20;99.90
6118;DHT22;3089;48.202;11.510;2022-10-26T15:19:31;17.20;99.90
6118;DHT22;3089;48.202;11.510;2022-10-26T15:22:00;17.10;99.90
6118;DHT22;3089;48.202;11.510;2022-10-26T15:24:31;17.00;99.90
6118;DHT22;3089;48.202;11.510;2022-10-26T15:27:11;17.00;99.90
6118;DHT22;3089;48.202;11.510;2022-10-26T15:29:41;16.90;99.90
6118;DHT22;3089;48.202;11.510;2022-10-26T15:32:27;16.90;99.90
6118;DHT22;3089;48.202;11.510;2022-10-26T15:35:21;16.80;99.90
6118;DHT22;3089;48.202;11.510;2022-10-26T15:37:52;16.80;99.90
6118;DHT22;3089;48.202;11.510;2022-10-26T15:40:21;16.70;99.90
6118;DHT22;3089;48.202;11.510;2022-10-26T15:42:57;16.70;99.90
6118;DHT22;3089;48.202;11.510;2022-10-26T15:45:27;16.60;99.90
6118;DHT22;3089;48.202;11.510;2022-10-26T15:47:58;16.60;99.90
6118;DHT22;3089;48.202;11.510;2022-10-26T15:50:27;16.60;99.90
6118;DHT22;3089;48.202;11.510;2022-10-26T15:52:59;16.60;99.90
6118;DHT22;3089;48.202;11.510;2022-10-26T15:55:29;16.60;99.90
6118;DHT22;3089;48.202;11.510;2022-10-26T15:57:57;16.50;99.90
6118;DHT22;3089;48.202;11.510;2022-10-26T16:00:24;16.40;99.90
6118;DHT22;3089;48.202;11.510;2022-10-26T16:02:52;16.40;99.90
6118;DHT22;3089;48.202;11.510;2022-10-26T16:05:20;16.40;99.90
6118;DHT22;3089;48.202;11.510;2022-10-26T16:07:48;16.30;99.90
6118;DHT22;3089;48.202;11.510;2022-10-26T16:10:21;16.30;99.90
6118;DHT22;3089;48.202;11.510;2022-10-26T16:12:50;16.30;99.90
6118;DHT22;3089;48.202;11.510;2022-10-26T16:15:22;16.20;99.90
6118;DHT22;3089;48.202;11.510;2022-10-26T16:17:51;16.20;99.90
6118;DHT22;3089;48.202;11.510;2022-10-26T16:20:21;16.10;99.90
6118;DHT22;3089;48.202;11.510;2022-10-26T16:22:50;16.00;99.90
6118;DHT22;3089;48.202;11.510;2022-10-26T16:25:22;16.00;99.90
6118;DHT22;3089;48.202;11.510;2022-10-26T16:27:51;16.00;99.90
6118;DHT22;3089;48.202;11.510;2022-10-26T16:30:19;16.00;99.90